| time (UTC) | temp C | wind direction | speed KPH | gust KPH | rain 1hr cm | rain 24hr cm | rain mn cm | humidity % | barometer mb |
| 20260504150505 | 25 | 56 | 14.5 | 24.1 | 0.00 | 0.00 | 0.00 | 59 | 1017.3 |
| 20260504141006 | 24 | 11 | 17.7 | 27.4 | 0.00 | 0.00 | 0.00 | 63 | 1017.0 |
| 20260504141001 | 24 | 74 | 16.1 | 25.7 | 0.00 | 0.00 | 0.00 | 63 | 1017.1 |
| 20260504140506 | 24 | 74 | 16.1 | 25.7 | 0.00 | 0.00 | 0.00 | 63 | 1017.1 |
| 20260504130506 | 22 | 73 | 9.7 | 17.7 | 0.00 | 0.00 | 0.00 | 74 | 1016.7 |
| 20260504110506 | 17 | 51 | 4.8 | 9.7 | 0.00 | 0.00 | 0.00 | 89 | 1015.5 |
| 20260504110328 | 17 | 205 | 4.8 | 12.9 | 0.00 | 0.00 | 0.00 | 88 | 1015.7 |
| 20260504100506 | 17 | 342 | 4.8 | 9.7 | 0.00 | 0.00 | 0.00 | 87 | 1015.2 |
| 20260504082007 | 18 | 72 | 4.8 | 9.7 | 0.00 | 0.00 | 0.00 | 84 | 1015.2 |
| 20260504081954 | 18 | 61 | 4.8 | 8.0 | 0.00 | 0.00 | 0.00 | 84 | 1015.1 |
| 20260504081507 | 18 | 61 | 4.8 | 8.0 | 0.00 | 0.00 | 0.00 | 84 | 1015.1 |
| 20260504081007 | 18 | 329 | 4.8 | 9.7 | 0.00 | 0.00 | 0.00 | 84 | 1015.2 |
| 20260504080949 | 18 | 325 | 4.8 | 8.0 | 0.00 | 0.00 | 0.00 | 85 | 1015.2 |
| 20260504080507 | 18 | 325 | 4.8 | 8.0 | 0.00 | 0.00 | 0.00 | 85 | 1015.2 |
| 20260504060229 | 18 | 73 | 6.4 | 14.5 | 0.00 | 0.00 | 0.00 | 83 | 1015.7 |
| 20260504050507 | 18 | 38 | 3.2 | 12.9 | 0.00 | 0.00 | 0.00 | 84 | 1016.6 |
| 20260504050007 | 18 | 93 | 3.2 | 9.7 | 0.00 | 0.00 | 0.00 | 84 | 1016.6 |
| 20260504045507 | 18 | 120 | 3.2 | 6.4 | 0.00 | 0.00 | 0.00 | 84 | 1016.9 |
| 20260504045007 | 18 | 68 | 3.2 | 8.0 | 0.00 | 0.00 | 0.00 | 84 | 1017.0 |
| 20260504044938 | 18 | 334 | 3.2 | 8.0 | 0.00 | 0.00 | 0.00 | 85 | 1016.9 |
| 20260504044507 | 18 | 334 | 3.2 | 8.0 | 0.00 | 0.00 | 0.00 | 85 | 1016.9 |
| 20260504044007 | 18 | 334 | 3.2 | 8.0 | 0.00 | 0.00 | 0.00 | 85 | 1017.0 |
| 20260504043939 | 18 | 88 | 3.2 | 8.0 | 0.00 | 0.00 | 0.00 | 85 | 1017.2 |
| 20260504043507 | 18 | 88 | 3.2 | 8.0 | 0.00 | 0.00 | 0.00 | 85 | 1017.2 |
| 20260504043350 | 18 | 9 | 3.2 | 8.0 | 0.00 | 0.00 | 0.00 | 84 | 1017.0 |
| 20260504043007 | 18 | 9 | 3.2 | 8.0 | 0.00 | 0.00 | 0.00 | 84 | 1017.0 |
| 20260504042507 | 18 | 31 | 3.2 | 8.0 | 0.00 | 0.00 | 0.00 | 84 | 1017.1 |
| 20260504042007 | 18 | 9 | 3.2 | 8.0 | 0.00 | 0.00 | 0.00 | 84 | 1017.1 |
| 20260504041507 | 19 | 340 | 3.2 | 4.8 | 0.00 | 0.00 | 0.00 | 84 | 1017.1 |
| 20260504041222 | 19 | 80 | 3.2 | 8.0 | 0.00 | 0.00 | 0.00 | 83 | 1017.1 |
| 20260504041007 | 19 | 80 | 3.2 | 8.0 | 0.00 | 0.00 | 0.00 | 83 | 1017.1 |
| 20260504040914 | 19 | 77 | 3.2 | 6.4 | 0.00 | 0.00 | 0.00 | 83 | 1017.1 |
| 20260504040507 | 19 | 88 | 3.2 | 8.0 | 0.00 | 0.00 | 0.00 | 83 | 1017.0 |
| 20260504040148 | 19 | 105 | 3.2 | 4.8 | 0.00 | 0.00 | 0.00 | 83 | 1017.2 |
| 20260504040055 | 19 | 292 | 3.2 | 6.4 | 0.00 | 0.00 | 0.00 | 83 | 1017.2 |
| 20260504040007 | 19 | 77 | 3.2 | 6.4 | 0.00 | 0.00 | 0.00 | 83 | 1017.1 |
| 20260504035507 | 19 | 105 | 3.2 | 4.8 | 0.00 | 0.00 | 0.00 | 83 | 1017.2 |
| 20260504035227 | 19 | 330 | 3.2 | 4.8 | 0.00 | 0.00 | 0.00 | 83 | 1017.2 |
| 20260504035007 | 19 | 292 | 3.2 | 6.4 | 0.00 | 0.00 | 0.00 | 83 | 1017.2 |
| 20260504034507 | 19 | 330 | 3.2 | 4.8 | 0.00 | 0.00 | 0.00 | 83 | 1017.2 |
| 20260504034140 | 19 | 51 | 3.2 | 8.0 | 0.00 | 0.00 | 0.00 | 82 | 1017.1 |
| 20260504034007 | 19 | 68 | 3.2 | 6.4 | 0.00 | 0.00 | 0.00 | 82 | 1017.1 |
| 20260504033950 | 20 | 120 | 3.2 | 6.4 | 0.00 | 0.00 | 0.00 | 82 | 1017.1 |
| 20260504033507 | 19 | 51 | 3.2 | 8.0 | 0.00 | 0.00 | 0.00 | 82 | 1017.1 |
| 20260504033007 | 20 | 120 | 3.2 | 6.4 | 0.00 | 0.00 | 0.00 | 82 | 1017.1 |
| 20260504032732 | 20 | 93 | 3.2 | 8.0 | 0.00 | 0.00 | 0.00 | 81 | 1017.2 |
| 20260504032508 | 20 | 330 | 3.2 | 6.4 | 0.00 | 0.00 | 0.00 | 81 | 1017.1 |
| 20260504032014 | 20 | 9 | 3.2 | 6.4 | 0.00 | 0.00 | 0.00 | 81 | 1017.4 |
| 20260504032008 | 20 | 93 | 3.2 | 8.0 | 0.00 | 0.00 | 0.00 | 81 | 1017.2 |
| 20260504031508 | 20 | 9 | 3.2 | 6.4 | 0.00 | 0.00 | 0.00 | 81 | 1017.4 |
| 20260504031008 | 20 | 65 | 4.8 | 6.4 | 0.00 | 0.00 | 0.00 | 81 | 1017.2 |
| 20260504030508 | 20 | 120 | 4.8 | 8.0 | 0.00 | 0.00 | 0.00 | 81 | 1017.1 |
| 20260504030316 | 20 | 74 | 4.8 | 8.0 | 0.00 | 0.00 | 0.00 | 81 | 1017.2 |
| 20260504030008 | 20 | 68 | 4.8 | 8.0 | 0.00 | 0.00 | 0.00 | 81 | 1017.0 |
| 20260504025508 | 20 | 74 | 4.8 | 8.0 | 0.00 | 0.00 | 0.00 | 81 | 1017.2 |
| 20260504025008 | 20 | 309 | 6.4 | 12.9 | 0.00 | 0.00 | 0.00 | 81 | 1017.1 |
| 20260504024508 | 20 | 63 | 6.4 | 14.5 | 0.00 | 0.00 | 0.00 | 81 | 1016.9 |
| 20260504024138 | 20 | 80 | 6.4 | 9.7 | 0.00 | 0.00 | 0.00 | 81 | 1017.2 |
| 20260504024008 | 20 | 61 | 6.4 | 9.7 | 0.00 | 0.00 | 0.00 | 81 | 1017.1 |
| 20260504023508 | 20 | 80 | 6.4 | 9.7 | 0.00 | 0.00 | 0.00 | 81 | 1017.2 |
| 20260504023008 | 20 | 66 | 6.4 | 8.0 | 0.00 | 0.00 | 0.00 | 81 | 1017.0 |
| 20260504022508 | 20 | 76 | 6.4 | 11.3 | 0.00 | 0.00 | 0.00 | 81 | 1016.9 |
| 20260504022008 | 20 | 75 | 6.4 | 11.3 | 0.00 | 0.00 | 0.00 | 80 | 1017.0 |
| 20260504022001 | 20 | 75 | 6.4 | 11.3 | 0.00 | 0.00 | 0.00 | 80 | 1016.9 |
| 20260504021508 | 20 | 75 | 6.4 | 11.3 | 0.00 | 0.00 | 0.00 | 80 | 1016.9 |
| 20260504021339 | 20 | 56 | 6.4 | 9.7 | 0.00 | 0.00 | 0.00 | 80 | 1016.9 |
| 20260504021011 | 20 | 64 | 6.4 | 11.3 | 0.00 | 0.00 | 0.00 | 80 | 1016.9 |
| 20260504021008 | 20 | 56 | 6.4 | 9.7 | 0.00 | 0.00 | 0.00 | 80 | 1016.9 |
| 20260504020920 | 20 | 49 | 6.4 | 11.3 | 0.00 | 0.00 | 0.00 | 79 | 1016.9 |
| 20260504020508 | 20 | 64 | 6.4 | 11.3 | 0.00 | 0.00 | 0.00 | 80 | 1016.9 |
| 20260504020008 | 20 | 49 | 6.4 | 11.3 | 0.00 | 0.00 | 0.00 | 79 | 1016.9 |
| 20260504015605 | 20 | 75 | 8.0 | 12.9 | 0.00 | 0.00 | 0.00 | 78 | 1016.7 |
| 20260504015508 | 20 | 61 | 6.4 | 11.3 | 0.00 | 0.00 | 0.00 | 79 | 1016.7 |
| 20260504015008 | 20 | 78 | 6.4 | 11.3 | 0.00 | 0.00 | 0.00 | 79 | 1016.7 |
| 20260504014508 | 20 | 78 | 6.4 | 11.3 | 0.00 | 0.00 | 0.00 | 79 | 1016.7 |
| 20260504014147 | 20 | 66 | 8.0 | 12.9 | 0.00 | 0.00 | 0.00 | 78 | 1016.6 |
| 20260504014008 | 20 | 75 | 8.0 | 12.9 | 0.00 | 0.00 | 0.00 | 78 | 1016.7 |
| 20260504013508 | 20 | 66 | 8.0 | 12.9 | 0.00 | 0.00 | 0.00 | 78 | 1016.6 |
| 20260504013315 | 20 | 75 | 8.0 | 12.9 | 0.00 | 0.00 | 0.00 | 78 | 1016.7 |
| 20260504013008 | 20 | 75 | 8.0 | 12.9 | 0.00 | 0.00 | 0.00 | 78 | 1016.7 |
| 20260504012508 | 21 | 55 | 8.0 | 14.5 | 0.00 | 0.00 | 0.00 | 77 | 1016.7 |
| 20260504012008 | 21 | 68 | 8.0 | 14.5 | 0.00 | 0.00 | 0.00 | 77 | 1016.7 |
| 20260504011508 | 21 | 32 | 9.7 | 14.5 | 0.00 | 0.00 | 0.00 | 77 | 1016.5 |
| 20260504011141 | 21 | 76 | 9.7 | 16.1 | 0.00 | 0.00 | 0.00 | 77 | 1016.5 |
| 20260504011008 | 21 | 67 | 9.7 | 14.5 | 0.00 | 0.00 | 0.00 | 77 | 1016.4 |
| 20260504010508 | 21 | 76 | 9.7 | 16.1 | 0.00 | 0.00 | 0.00 | 77 | 1016.5 |
| 20260504010012 | 21 | 71 | 9.7 | 14.5 | 0.00 | 0.00 | 0.00 | 76 | 1016.1 |
| 20260504010008 | 21 | 68 | 9.7 | 16.1 | 0.00 | 0.00 | 0.00 | 76 | 1016.3 |
| 20260504005508 | 21 | 71 | 9.7 | 14.5 | 0.00 | 0.00 | 0.00 | 76 | 1016.1 |
| 20260504005138 | 21 | 83 | 11.3 | 17.7 | 0.00 | 0.00 | 0.00 | 75 | 1016.0 |
| 20260504005057 | 21 | 78 | 11.3 | 20.9 | 0.00 | 0.00 | 0.00 | 74 | 1015.9 |
| 20260504005008 | 21 | 69 | 11.3 | 19.3 | 0.00 | 0.00 | 0.00 | 76 | 1015.9 |
| 20260504004508 | 21 | 83 | 11.3 | 17.7 | 0.00 | 0.00 | 0.00 | 75 | 1016.0 |
| 20260504004503 | 21 | 11 | 11.3 | 17.7 | 0.00 | 0.00 | 0.00 | 75 | 1016.0 |
| 20260504004008 | 21 | 11 | 11.3 | 17.7 | 0.00 | 0.00 | 0.00 | 75 | 1016.0 |
| 20260504003508 | 21 | 73 | 11.3 | 16.1 | 0.00 | 0.00 | 0.00 | 75 | 1015.8 |
| 20260504003008 | 21 | 63 | 11.3 | 17.7 | 0.00 | 0.00 | 0.00 | 74 | 1015.9 |
| 20260504002607 | 21 | 72 | 9.7 | 17.7 | 0.00 | 0.00 | 0.00 | 74 | 1015.9 |
| 20260504002508 | 21 | 78 | 11.3 | 20.9 | 0.00 | 0.00 | 0.00 | 74 | 1015.9 |
| 20260504002437 | 21 | 78 | 11.3 | 17.7 | 0.00 | 0.00 | 0.00 | 73 | 1015.8 |
| 20260504002012 | 21 | 67 | 9.7 | 14.5 | 0.00 | 0.00 | 0.00 | 74 | 1015.8 |
| 20260504002008 | 21 | 72 | 9.7 | 17.7 | 0.00 | 0.00 | 0.00 | 74 | 1015.9 |
| 20260504001508 | 21 | 67 | 9.7 | 14.5 | 0.00 | 0.00 | 0.00 | 74 | 1015.8 |
| 20260504001008 | 21 | 78 | 11.3 | 17.7 | 0.00 | 0.00 | 0.00 | 73 | 1015.8 |
| 20260504000508 | 21 | 59 | 12.9 | 20.9 | 0.00 | 0.00 | 0.00 | 73 | 1015.8 |
| 20260504000008 | 22 | 80 | 12.9 | 17.7 | 0.00 | 0.00 | 0.00 | 73 | 1015.7 |
| 20260503235508 | 22 | 67 | 12.9 | 24.1 | 0.00 | 0.00 | 0.00 | 72 | 1015.5 |
| 20260503235013 | 22 | 67 | 12.9 | 24.1 | 0.00 | 0.00 | 0.00 | 72 | 1015.6 |
| 20260503235008 | 22 | 84 | 12.9 | 17.7 | 0.00 | 0.00 | 0.00 | 72 | 1015.6 |
| 20260503234508 | 22 | 67 | 12.9 | 24.1 | 0.00 | 0.00 | 0.00 | 72 | 1015.6 |
| 20260503234346 | 22 | 81 | 14.5 | 20.9 | 0.00 | 0.00 | 0.00 | 72 | 1015.5 |
| 20260503234008 | 22 | 78 | 14.5 | 22.5 | 0.00 | 0.00 | 0.00 | 72 | 1015.5 |
| 20260503233508 | 22 | 78 | 14.5 | 22.5 | 0.00 | 0.00 | 0.00 | 72 | 1015.5 |
| 20260503233008 | 22 | 68 | 12.9 | 20.9 | 0.00 | 0.00 | 0.00 | 72 | 1015.5 |
| 20260503232508 | 22 | 82 | 12.9 | 19.3 | 0.00 | 0.00 | 0.00 | 72 | 1015.6 |
| 20260503232418 | 22 | 64 | 14.5 | 22.5 | 0.00 | 0.00 | 0.00 | 71 | 1015.5 |
| 20260503232008 | 22 | 64 | 14.5 | 22.5 | 0.00 | 0.00 | 0.00 | 71 | 1015.5 |
| 20260503232001 | 22 | 69 | 12.9 | 20.9 | 0.00 | 0.00 | 0.00 | 71 | 1015.5 |
| 20260503231508 | 22 | 69 | 12.9 | 20.9 | 0.00 | 0.00 | 0.00 | 71 | 1015.5 |
| 20260503231332 | 22 | 72 | 11.3 | 17.7 | 0.00 | 0.00 | 0.00 | 72 | 1015.4 |
| 20260503231008 | 22 | 72 | 11.3 | 17.7 | 0.00 | 0.00 | 0.00 | 72 | 1015.4 |
| 20260503230636 | 22 | 79 | 14.5 | 25.7 | 0.00 | 0.00 | 0.00 | 71 | 1015.5 |
| 20260503230508 | 22 | 78 | 12.9 | 20.9 | 0.00 | 0.00 | 0.00 | 72 | 1015.4 |
| 20260503230142 | 22 | 71 | 16.1 | 20.9 | 0.00 | 0.00 | 0.00 | 71 | 1015.4 |
| 20260503230008 | 22 | 79 | 14.5 | 25.7 | 0.00 | 0.00 | 0.00 | 71 | 1015.5 |
| 20260503225508 | 22 | 71 | 16.1 | 20.9 | 0.00 | 0.00 | 0.00 | 71 | 1015.4 |
| 20260503225013 | 22 | 77 | 14.5 | 27.4 | 0.00 | 0.00 | 0.00 | 71 | 1015.5 |
| 20260503225008 | 22 | 71 | 16.1 | 24.1 | 0.00 | 0.00 | 0.00 | 71 | 1015.4 |
| 20260503224508 | 22 | 77 | 14.5 | 27.4 | 0.00 | 0.00 | 0.00 | 71 | 1015.5 |
| 20260503224138 | 23 | 82 | 16.1 | 25.7 | 0.00 | 0.00 | 0.00 | 70 | 1015.4 |
| 20260503224008 | 22 | 67 | 14.5 | 22.5 | 0.00 | 0.00 | 0.00 | 71 | 1015.6 |
| 20260503223508 | 23 | 82 | 16.1 | 25.7 | 0.00 | 0.00 | 0.00 | 70 | 1015.4 |
| 20260503223008 | 23 | 74 | 14.5 | 24.1 | 0.00 | 0.00 | 0.00 | 70 | 1015.3 |
| 20260503222508 | 23 | 84 | 14.5 | 24.1 | 0.00 | 0.00 | 0.00 | 71 | 1015.3 |
| 20260503222104 | 23 | 82 | 12.9 | 22.5 | 0.00 | 0.00 | 0.00 | 71 | 1015.3 |
| 20260503222008 | 23 | 80 | 14.5 | 29.0 | 0.00 | 0.00 | 0.00 | 71 | 1015.4 |
| 20260503221508 | 23 | 82 | 12.9 | 22.5 | 0.00 | 0.00 | 0.00 | 71 | 1015.3 |
| 20260503221326 | 23 | 65 | 14.5 | 22.5 | 0.00 | 0.00 | 0.00 | 71 | 1015.3 |
| 20260503221014 | 23 | 68 | 14.5 | 20.9 | 0.00 | 0.00 | 0.00 | 71 | 1015.4 |
| 20260503221008 | 23 | 65 | 14.5 | 22.5 | 0.00 | 0.00 | 0.00 | 71 | 1015.3 |
| 20260503220508 | 23 | 68 | 14.5 | 20.9 | 0.00 | 0.00 | 0.00 | 71 | 1015.4 |
| 20260503220013 | 23 | 80 | 17.7 | 24.1 | 0.00 | 0.00 | 0.00 | 70 | 1015.2 |
| 20260503220008 | 23 | 80 | 16.1 | 24.1 | 0.00 | 0.00 | 0.00 | 70 | 1015.5 |
| 20260503215508 | 23 | 80 | 17.7 | 24.1 | 0.00 | 0.00 | 0.00 | 70 | 1015.2 |
| 20260503215338 | 23 | 74 | 19.3 | 27.4 | 0.00 | 0.00 | 0.00 | 70 | 1015.3 |
| 20260503215008 | 23 | 74 | 19.3 | 27.4 | 0.00 | 0.00 | 0.00 | 70 | 1015.3 |
| 20260503214509 | 23 | 107 | 16.1 | 27.4 | 0.00 | 0.00 | 0.00 | 69 | 1015.2 |
| 20260503214009 | 23 | 74 | 11.3 | 20.9 | 0.00 | 0.00 | 0.00 | 70 | 1015.2 |
| 20260503213940 | 23 | 72 | 11.3 | 19.3 | 0.00 | 0.00 | 0.00 | 70 | 1015.1 |
| 20260503213509 | 23 | 72 | 11.3 | 19.3 | 0.00 | 0.00 | 0.00 | 70 | 1015.1 |
| 20260503213220 | 23 | 78 | 12.9 | 17.7 | 0.00 | 0.00 | 0.00 | 70 | 1015.2 |
| 20260503213009 | 23 | 78 | 12.9 | 17.7 | 0.00 | 0.00 | 0.00 | 70 | 1015.2 |
| 20260503212855 | 23 | 63 | 11.3 | 20.9 | 0.00 | 0.00 | 0.00 | 69 | 1015.2 |
| 20260503212509 | 23 | 63 | 11.3 | 20.9 | 0.00 | 0.00 | 0.00 | 69 | 1015.2 |
| 20260503212009 | 23 | 64 | 11.3 | 20.9 | 0.00 | 0.00 | 0.00 | 69 | 1015.3 |
| 20260503211648 | 23 | 70 | 12.9 | 17.7 | 0.00 | 0.00 | 0.00 | 68 | 1015.1 |
| 20260503211509 | 23 | 70 | 12.9 | 17.7 | 0.00 | 0.00 | 0.00 | 68 | 1015.1 |
| 20260503211115 | 23 | 71 | 12.9 | 22.5 | 0.00 | 0.00 | 0.00 | 68 | 1015.2 |
| 20260503211009 | 23 | 71 | 12.9 | 22.5 | 0.00 | 0.00 | 0.00 | 68 | 1015.2 |
| 20260503210649 | 23 | 69 | 11.3 | 24.1 | 0.00 | 0.00 | 0.00 | 68 | 1015.2 |
| 20260503210509 | 23 | 69 | 11.3 | 24.1 | 0.00 | 0.00 | 0.00 | 68 | 1015.2 |
| 20260503210055 | 23 | 294 | 11.3 | 17.7 | 0.00 | 0.00 | 0.00 | 68 | 1015.3 |
| 20260503210009 | 23 | 294 | 11.3 | 17.7 | 0.00 | 0.00 | 0.00 | 68 | 1015.3 |
| 20260503205729 | 23 | 66 | 12.9 | 24.1 | 0.00 | 0.00 | 0.00 | 67 | 1015.2 |
| 20260503205657 | 23 | 66 | 12.9 | 24.1 | 0.00 | 0.00 | 0.00 | 67 | 1015.2 |
| 20260503205509 | 23 | 66 | 12.9 | 24.1 | 0.00 | 0.00 | 0.00 | 67 | 1015.2 |
| 20260503205228 | 24 | 55 | 11.3 | 19.3 | 0.00 | 0.00 | 0.00 | 67 | 1015.3 |
| 20260503205009 | 24 | 55 | 11.3 | 19.3 | 0.00 | 0.00 | 0.00 | 67 | 1015.3 |
| 20260503204636 | 24 | 71 | 11.3 | 19.3 | 0.00 | 0.00 | 0.00 | 66 | 1015.3 |
| 20260503204509 | 24 | 77 | 11.3 | 19.3 | 0.00 | 0.00 | 0.00 | 66 | 1015.3 |
| 20260503204009 | 24 | 71 | 11.3 | 19.3 | 0.00 | 0.00 | 0.00 | 66 | 1015.3 |
| 20260503203637 | 24 | 90 | 11.3 | 19.3 | 0.00 | 0.00 | 0.00 | 64 | 1015.3 |
| 20260503203509 | 24 | 81 | 11.3 | 17.7 | 0.00 | 0.00 | 0.00 | 66 | 1015.3 |
| 20260503203009 | 24 | 90 | 11.3 | 19.3 | 0.00 | 0.00 | 0.00 | 64 | 1015.3 |
| 20260503202941 | 25 | 67 | 9.7 | 19.3 | 0.00 | 0.00 | 0.00 | 65 | 1015.4 |
| 20260503202602 | 25 | 79 | 9.7 | 19.3 | 0.00 | 0.00 | 0.00 | 64 | 1015.5 |
| 20260503202509 | 25 | 67 | 9.7 | 19.3 | 0.00 | 0.00 | 0.00 | 65 | 1015.4 |
| 20260503202147 | 25 | 51 | 11.3 | 17.7 | 0.00 | 0.00 | 0.00 | 65 | 1015.4 |
| 20260503202009 | 25 | 79 | 9.7 | 19.3 | 0.00 | 0.00 | 0.00 | 64 | 1015.5 |
| 20260503201509 | 25 | 51 | 11.3 | 17.7 | 0.00 | 0.00 | 0.00 | 65 | 1015.4 |
| 20260503201347 | 25 | 71 | 12.9 | 20.9 | 0.00 | 0.00 | 0.00 | 65 | 1015.5 |
| 20260503201009 | 25 | 71 | 12.9 | 20.9 | 0.00 | 0.00 | 0.00 | 65 | 1015.5 |
| 20260503200509 | 25 | 63 | 14.5 | 19.3 | 0.00 | 0.00 | 0.00 | 64 | 1015.6 |
| 20260503200442 | 25 | 72 | 12.9 | 22.5 | 0.00 | 0.00 | 0.00 | 64 | 1015.8 |
| 20260503200136 | 25 | 73 | 11.3 | 27.4 | 0.00 | 0.00 | 0.00 | 65 | 1015.8 |
| 20260503200009 | 25 | 72 | 12.9 | 22.5 | 0.00 | 0.00 | 0.00 | 64 | 1015.8 |
| 20260503195509 | 25 | 73 | 11.3 | 27.4 | 0.00 | 0.00 | 0.00 | 65 | 1015.8 |
| 20260503195009 | 25 | 340 | 12.9 | 24.1 | 0.00 | 0.00 | 0.00 | 65 | 1015.6 |
| 20260503194509 | 25 | 52 | 12.9 | 24.1 | 0.00 | 0.00 | 0.00 | 66 | 1015.7 |
| 20260503194346 | 25 | 84 | 12.9 | 20.9 | 0.00 | 0.00 | 0.00 | 65 | 1016.0 |
| 20260503194009 | 25 | 84 | 12.9 | 20.9 | 0.00 | 0.00 | 0.00 | 65 | 1016.0 |
| 20260503193509 | 25 | 69 | 12.9 | 22.5 | 0.00 | 0.00 | 0.00 | 65 | 1016.2 |
| 20260503193009 | 25 | 72 | 11.3 | 22.5 | 0.00 | 0.00 | 0.00 | 65 | 1016.1 |
| 20260503192756 | 25 | 61 | 12.9 | 25.7 | 0.00 | 0.00 | 0.00 | 66 | 1016.1 |
| 20260503192544 | 25 | 70 | 12.9 | 22.5 | 0.00 | 0.00 | 0.00 | 66 | 1016.3 |
| 20260503192509 | 25 | 61 | 12.9 | 25.7 | 0.00 | 0.00 | 0.00 | 66 | 1016.1 |
| 20260503192316 | 25 | 70 | 12.9 | 22.5 | 0.00 | 0.00 | 0.00 | 66 | 1016.3 |
| 20260503192009 | 25 | 70 | 12.9 | 22.5 | 0.00 | 0.00 | 0.00 | 66 | 1016.3 |
| 20260503191811 | 25 | 69 | 14.5 | 24.1 | 0.00 | 0.00 | 0.00 | 66 | 1016.4 |
| 20260503191509 | 25 | 69 | 14.5 | 24.1 | 0.00 | 0.00 | 0.00 | 66 | 1016.4 |
| 20260503191009 | 25 | 83 | 16.1 | 33.8 | 0.00 | 0.00 | 0.00 | 66 | 1016.4 |
| 20260503190939 | 25 | 68 | 14.5 | 22.5 | 0.00 | 0.00 | 0.00 | 67 | 1016.5 |
| 20260503190509 | 25 | 68 | 14.5 | 22.5 | 0.00 | 0.00 | 0.00 | 67 | 1016.5 |
| 20260503190009 | 24 | 76 | 11.3 | 22.5 | 0.00 | 0.00 | 0.00 | 66 | 1016.7 |
| 20260503185509 | 24 | 273 | 12.9 | 17.7 | 0.00 | 0.00 | 0.00 | 68 | 1016.7 |
| 20260503185009 | 24 | 9 | 14.5 | 24.1 | 0.00 | 0.00 | 0.00 | 68 | 1016.7 |
| 20260503184805 | 24 | 75 | 14.5 | 25.7 | 0.00 | 0.00 | 0.00 | 69 | 1016.9 |
| 20260503184509 | 24 | 75 | 14.5 | 25.7 | 0.00 | 0.00 | 0.00 | 69 | 1016.9 |
| 20260503184438 | 24 | 70 | 14.5 | 22.5 | 0.00 | 0.00 | 0.00 | 68 | 1017.0 |
| 20260503184009 | 24 | 70 | 14.5 | 22.5 | 0.00 | 0.00 | 0.00 | 68 | 1017.0 |
| 20260503183938 | 24 | 71 | 12.9 | 22.5 | 0.00 | 0.00 | 0.00 | 69 | 1017.0 |
| 20260503183509 | 24 | 71 | 12.9 | 22.5 | 0.00 | 0.00 | 0.00 | 69 | 1017.0 |
| 20260503183332 | 24 | 86 | 12.9 | 30.6 | 0.00 | 0.00 | 0.00 | 69 | 1017.1 |
| 20260503183009 | 24 | 86 | 12.9 | 30.6 | 0.00 | 0.00 | 0.00 | 69 | 1017.1 |
| 20260503182810 | 23 | 61 | 11.3 | 20.9 | 0.00 | 0.00 | 0.00 | 70 | 1017.0 |
| 20260503182509 | 23 | 61 | 11.3 | 20.9 | 0.00 | 0.00 | 0.00 | 70 | 1017.0 |
| 20260503182139 | 23 | 69 | 11.3 | 20.9 | 0.00 | 0.00 | 0.00 | 70 | 1017.3 |
| 20260503182106 | 23 | 69 | 11.3 | 20.9 | 0.00 | 0.00 | 0.00 | 70 | 1017.3 |
| 20260503182009 | 23 | 69 | 11.3 | 20.9 | 0.00 | 0.00 | 0.00 | 70 | 1017.3 |
| 20260503181630 | 23 | 56 | 12.9 | 25.7 | 0.00 | 0.00 | 0.00 | 71 | 1017.4 |
| 20260503181509 | 23 | 56 | 12.9 | 25.7 | 0.00 | 0.00 | 0.00 | 71 | 1017.4 |
| 20260503181304 | 23 | 59 | 12.9 | 22.5 | 0.00 | 0.00 | 0.00 | 71 | 1017.4 |
| 20260503181215 | 23 | 59 | 12.9 | 22.5 | 0.00 | 0.00 | 0.00 | 71 | 1017.4 |
| 20260503181009 | 23 | 59 | 12.9 | 22.5 | 0.00 | 0.00 | 0.00 | 71 | 1017.4 |
| 20260503180729 | 23 | 64 | 11.3 | 27.4 | 0.00 | 0.00 | 0.00 | 72 | 1017.5 |
| 20260503180509 | 23 | 64 | 11.3 | 27.4 | 0.00 | 0.00 | 0.00 | 72 | 1017.5 |
| 20260503180133 | 23 | 61 | 12.9 | 29.0 | 0.00 | 0.00 | 0.00 | 73 | 1017.6 |
| 20260503180055 | 23 | 79 | 12.9 | 17.7 | 0.00 | 0.00 | 0.00 | 73 | 1017.5 |
| 20260503180009 | 23 | 79 | 12.9 | 17.7 | 0.00 | 0.00 | 0.00 | 73 | 1017.5 |
| 20260503175732 | 23 | 61 | 12.9 | 29.0 | 0.00 | 0.00 | 0.00 | 73 | 1017.6 |
| 20260503175509 | 23 | 61 | 12.9 | 29.0 | 0.00 | 0.00 | 0.00 | 73 | 1017.6 |
| 20260503175152 | 22 | 127 | 12.9 | 20.9 | 0.00 | 0.00 | 0.00 | 74 | 1017.6 |
| 20260503175009 | 22 | 127 | 12.9 | 20.9 | 0.00 | 0.00 | 0.00 | 74 | 1017.6 |
| 20260503174841 | 22 | 74 | 14.5 | 20.9 | 0.00 | 0.00 | 0.00 | 75 | 1017.7 |
| 20260503174822 | 22 | 67 | 9.7 | 19.3 | 0.00 | 0.00 | 0.00 | 75 | 1017.7 |
| 20260503174509 | 22 | 74 | 14.5 | 20.9 | 0.00 | 0.00 | 0.00 | 75 | 1017.7 |
| 20260503174009 | 22 | 66 | 11.3 | 20.9 | 0.00 | 0.00 | 0.00 | 75 | 1017.7 |
| 20260503173815 | 22 | 63 | 8.0 | 22.5 | 0.00 | 0.00 | 0.00 | 76 | 1017.8 |
| 20260503173512 | 22 | 67 | 9.7 | 19.3 | 0.00 | 0.00 | 0.00 | 75 | 1017.7 |
| 20260503173509 | 22 | 63 | 8.0 | 22.5 | 0.00 | 0.00 | 0.00 | 76 | 1017.8 |
| 20260503173009 | 22 | 67 | 9.7 | 19.3 | 0.00 | 0.00 | 0.00 | 75 | 1017.7 |
| 20260503172908 | 22 | 22 | 11.3 | 20.9 | 0.00 | 0.00 | 0.00 | 76 | 1017.8 |
| 20260503172520 | 22 | 71 | 12.9 | 22.5 | 0.00 | 0.00 | 0.00 | 76 | 1017.7 |
| 20260503172509 | 22 | 22 | 11.3 | 20.9 | 0.00 | 0.00 | 0.00 | 76 | 1017.8 |
| 20260503172439 | 22 | 71 | 12.9 | 22.5 | 0.00 | 0.00 | 0.00 | 76 | 1017.7 |
| 20260503172012 | 22 | 76 | 12.9 | 25.7 | 0.00 | 0.00 | 0.00 | 76 | 1017.8 |
| 20260503172009 | 22 | 71 | 12.9 | 22.5 | 0.00 | 0.00 | 0.00 | 76 | 1017.7 |
| 20260503171509 | 22 | 76 | 12.9 | 25.7 | 0.00 | 0.00 | 0.00 | 76 | 1017.8 |
| 20260503171148 | 22 | 66 | 11.3 | 20.9 | 0.00 | 0.00 | 0.00 | 76 | 1017.6 |
| 20260503171023 | 22 | 74 | 11.3 | 20.9 | 0.00 | 0.00 | 0.00 | 77 | 1017.7 |
| 20260503171009 | 22 | 66 | 11.3 | 20.9 | 0.00 | 0.00 | 0.00 | 76 | 1017.6 |
| 20260503170509 | 22 | 74 | 11.3 | 20.9 | 0.00 | 0.00 | 0.00 | 77 | 1017.7 |
| 20260503170340 | 21 | 59 | 12.9 | 22.5 | 0.00 | 0.00 | 0.00 | 76 | 1017.8 |
| 20260503151010 | 19 | 67 | 8.0 | 14.5 | 0.00 | 0.00 | 0.00 | 87 | 1018.3 |
| 20260503150816 | 18 | 344 | 8.0 | 20.9 | 0.00 | 0.00 | 0.00 | 87 | 1018.3 |